Terminal Aerodrome Forecast
Issued by NWS Melbourne, FL

Home | Current Version | Previous Version | Text Only | Print | Product List | Glossary On
Versions: 1 2 3 4 5 6 7 8 9 10 11 12 13 14 15 16 17 18
000
FTUS42 KMLB 242324
TAFVRB
TAF
KVRB 242324Z 2500/2524 25016G24KT P6SM SKC
     FM250300 26016KT P6SM SKC
     FM250800 27010KT P6SM SKC
     FM251400 28012G18KT P6SM FEW050
     FM252100 15010KT P6SM SKC=

USA.gov is the U.S. government's official web portal to all federal, state and local government web resources and services.